createdAt,value
2022-10-21T00:00:13.819Z,43.36
2022-10-21T00:05:09.085Z,43.60
2022-10-21T00:10:02.278Z,43.36
2022-10-21T00:14:57.248Z,43.32
2022-10-21T00:19:50.966Z,43.44
2022-10-21T00:24:45.572Z,43.66
2022-10-21T00:29:38.925Z,43.73
2022-10-21T00:34:33.164Z,44.18
2022-10-21T00:39:26.338Z,44.19
2022-10-21T00:44:20.948Z,44.04
2022-10-21T00:49:20.619Z,43.91
2022-10-21T00:54:14.678Z,43.63
2022-10-21T00:59:08.279Z,43.32
2022-10-21T01:04:04.089Z,42.66
2022-10-21T01:08:58.557Z,42.58
2022-10-21T01:14:08.901Z,42.33
2022-10-21T01:19:13.962Z,42.68
2022-10-21T01:24:37.611Z,42.53
2022-10-21T01:30:00.418Z,42.71
2022-10-21T01:35:03.242Z,42.85
2022-10-21T01:40:07.106Z,42.76
2022-10-21T01:45:07.983Z,42.87
2022-10-21T01:50:07.612Z,42.88
2022-10-21T01:55:05.088Z,42.91
2022-10-21T02:00:00.465Z,42.86
2022-10-21T02:04:57.055Z,43.21
2022-10-21T02:09:51.673Z,42.92
2022-10-21T02:14:50.022Z,42.88
2022-10-21T02:19:43.611Z,42.82
2022-10-21T02:24:46.097Z,43.12
2022-10-21T02:29:45.352Z,43.12
2022-10-21T02:34:52.561Z,43.32
2022-10-21T02:39:52.402Z,43.28
2022-10-21T02:44:47.296Z,43.57
2022-10-21T02:49:40.573Z,43.69
2022-10-21T02:54:33.788Z,43.95
2022-10-21T02:59:30.248Z,43.93
2022-10-21T03:04:27.798Z,44.28
2022-10-21T03:09:21.091Z,44.29
2022-10-21T03:14:19.623Z,44.73
2022-10-21T03:19:29.105Z,44.65
2022-10-21T03:25:07.594Z,44.88
2022-10-21T03:30:10.002Z,45.41
2022-10-21T03:35:12.387Z,45.48
2022-10-21T03:40:12.434Z,45.85
2022-10-21T03:45:09.063Z,45.97
2022-10-21T03:50:14.054Z,45.94
2022-10-21T03:55:19.531Z,46.40
2022-10-21T04:00:19.696Z,46.75
2022-10-21T04:05:14.546Z,46.93
2022-10-21T04:10:11.561Z,47.24
2022-10-21T04:15:22.434Z,47.39
2022-10-21T04:20:26.376Z,47.71
2022-10-21T04:25:25.891Z,47.78
2022-10-21T04:30:19.379Z,48.39
2022-10-21T04:35:17.113Z,48.52
2022-10-21T04:40:18.039Z,48.68
2022-10-21T04:45:13.957Z,48.95
2022-10-21T04:50:24.100Z,49.16
2022-10-21T04:55:22.178Z,49.31
2022-10-21T05:00:18.817Z,49.42
2022-10-21T05:05:26.222Z,49.80
2022-10-21T05:10:30.482Z,49.74
2022-10-21T05:15:30.944Z,50.04
2022-10-21T05:20:27.404Z,50.58
2022-10-21T05:25:23.963Z,50.62
2022-10-21T05:30:27.752Z,50.57
2022-10-21T05:35:40.784Z,50.66
2022-10-21T05:40:36.057Z,50.44
2022-10-21T05:45:47.242Z,50.45
2022-10-21T05:50:41.539Z,50.52
2022-10-21T05:55:45.228Z,50.61
2022-10-21T06:00:40.384Z,50.41
2022-10-21T06:05:35.816Z,50.26
2022-10-21T06:10:32.220Z,49.81
2022-10-21T06:15:30.783Z,49.29
2022-10-21T06:20:42.237Z,48.88
2022-10-21T06:25:38.829Z,48.44
2022-10-21T06:30:35.821Z,48.05
2022-10-21T06:35:47.249Z,47.49
2022-10-21T06:40:40.517Z,47.47
2022-10-21T06:45:34.155Z,47.41
2022-10-21T06:50:41.839Z,47.05
2022-10-21T06:55:43.900Z,46.63
2022-10-21T07:00:59.503Z,46.26
2022-10-21T07:05:59.479Z,46.18
2022-10-21T07:11:06.306Z,45.63
2022-10-21T07:16:13.828Z,45.23
2022-10-21T07:21:18.890Z,45.34
2022-10-21T07:26:46.548Z,44.65
2022-10-21T07:32:22.784Z,44.67
2022-10-21T07:43:46.589Z,43.14
2022-10-21T07:48:49.741Z,42.69
2022-10-21T07:53:56.809Z,42.59
2022-10-21T07:59:07.702Z,41.62
2022-10-21T08:04:05.334Z,42.00
2022-10-21T08:09:19.986Z,41.04
2022-10-21T08:14:16.687Z,40.86
2022-10-21T08:19:10.949Z,41.18
2022-10-21T08:24:11.964Z,40.55
2022-10-21T08:29:13.564Z,40.23
2022-10-21T08:34:08.314Z,40.18
2022-10-21T08:39:03.888Z,40.08
2022-10-21T08:43:59.216Z,39.61
2022-10-21T08:48:59.861Z,38.83
2022-10-21T08:53:58.568Z,38.30
2022-10-21T08:58:52.979Z,38.37
2022-10-21T09:03:54.524Z,36.75
2022-10-21T09:09:02.877Z,35.72
2022-10-21T09:19:41.711Z,35.29
2022-10-21T09:24:44.128Z,35.45
2022-10-21T09:29:39.369Z,35.15
2022-10-21T09:34:44.917Z,35.10
2022-10-21T09:39:46.239Z,35.18
2022-10-21T09:44:40.468Z,35.24
2022-10-21T09:50:02.213Z,34.93
2022-10-21T09:54:51.707Z,35.03
2022-10-21T09:59:57.111Z,34.62
2022-10-21T10:04:50.507Z,35.13
2022-10-21T10:09:47.913Z,35.31
2022-10-21T10:14:44.550Z,35.72
2022-10-21T10:19:37.845Z,36.06
2022-10-21T10:24:33.351Z,36.09
2022-10-21T10:29:29.005Z,36.19
2022-10-21T10:34:28.161Z,36.39
2022-10-21T10:39:26.875Z,36.56
2022-10-21T10:44:29.870Z,36.70
2022-10-21T10:49:25.975Z,36.49
2022-10-21T10:54:21.234Z,36.87
2022-10-21T10:59:22.361Z,36.10
2022-10-21T11:04:20.927Z,36.08
2022-10-21T11:09:15.982Z,36.10
2022-10-21T11:14:19.091Z,35.80
2022-10-21T11:19:21.804Z,36.10
2022-10-21T11:24:41.460Z,35.95
2022-10-21T11:29:45.349Z,36.09
2022-10-21T11:34:50.617Z,36.62
2022-10-21T11:39:56.127Z,36.70
2022-10-21T11:45:22.741Z,36.86
2022-10-21T11:50:24.034Z,36.82
2022-10-21T11:55:39.965Z,36.54
2022-10-21T12:00:41.398Z,36.57
2022-10-21T12:05:37.330Z,36.54
2022-10-21T12:10:37.360Z,36.48
2022-10-21T12:15:35.525Z,36.43
2022-10-21T12:20:28.809Z,36.93
2022-10-21T12:25:29.979Z,37.01
2022-10-21T12:30:33.720Z,37.04
2022-10-21T12:35:28.446Z,37.17
2022-10-21T12:40:37.492Z,36.65
2022-10-21T12:45:34.430Z,36.91
2022-10-21T12:50:30.267Z,36.86
2022-10-21T12:55:27.598Z,37.69
2022-10-21T13:00:56.360Z,37.47
2022-10-21T13:06:06.155Z,37.84
2022-10-21T13:11:22.909Z,37.35
2022-10-21T13:16:38.839Z,37.09
2022-10-21T13:21:36.766Z,37.04
2022-10-21T13:26:30.737Z,36.97
2022-10-21T13:31:24.087Z,37.29
2022-10-21T13:36:28.442Z,37.33
2022-10-21T13:41:26.277Z,37.21
2022-10-21T13:46:22.693Z,37.72
2022-10-21T13:51:21.640Z,37.72
2022-10-21T13:56:23.880Z,38.23
2022-10-21T14:01:20.290Z,37.73
2022-10-21T14:06:36.799Z,37.95
2022-10-21T14:11:36.571Z,37.65
2022-10-21T14:16:34.942Z,37.78
2022-10-21T14:21:33.397Z,38.19
2022-10-21T14:26:31.074Z,38.38
2022-10-21T14:31:25.052Z,39.46
2022-10-21T14:36:21.039Z,39.54
2022-10-21T14:41:23.272Z,39.59
2022-10-21T14:46:18.035Z,39.57
2022-10-21T14:51:21.261Z,39.73
2022-10-21T14:56:23.754Z,39.45
2022-10-21T15:01:20.664Z,39.84
2022-10-21T15:06:22.706Z,40.63
2022-10-21T15:11:39.321Z,41.32
2022-10-21T15:21:46.816Z,42.13
2022-10-21T15:26:42.852Z,42.38
2022-10-21T15:31:37.949Z,43.59
2022-10-21T15:36:31.574Z,44.19
2022-10-21T15:41:26.687Z,44.81
2022-10-21T15:46:21.501Z,45.39
2022-10-21T15:51:14.842Z,45.60
2022-10-21T15:56:11.531Z,45.34
2022-10-21T16:01:05.214Z,45.60
2022-10-21T16:05:59.874Z,45.93
2022-10-21T16:10:53.215Z,45.26
2022-10-21T16:15:46.574Z,45.29
2022-10-21T16:20:43.909Z,45.28
2022-10-21T16:25:39.576Z,45.30
2022-10-21T16:30:35.520Z,45.20
2022-10-21T16:35:28.867Z,45.25
2022-10-21T16:40:24.839Z,44.46
2022-10-21T16:45:24.384Z,44.29
2022-10-21T16:50:21.992Z,43.84
2022-10-21T16:55:15.913Z,44.06
2022-10-21T17:00:13.261Z,43.40
2022-10-21T17:05:15.638Z,43.02
2022-10-21T17:10:09.892Z,43.05
2022-10-21T17:15:04.583Z,43.24
2022-10-21T17:19:57.856Z,43.35
2022-10-21T17:25:00.485Z,43.60
2022-10-21T17:29:53.651Z,43.72
2022-10-21T17:34:46.952Z,43.54
2022-10-21T17:39:41.033Z,43.10
2022-10-21T17:44:35.624Z,42.68
2022-10-21T17:49:28.826Z,42.42
2022-10-21T17:54:25.990Z,42.37
2022-10-21T17:59:22.677Z,42.28
2022-10-21T18:04:17.205Z,42.21
2022-10-21T18:09:10.358Z,42.66
2022-10-21T18:14:03.668Z,42.81
2022-10-21T18:19:01.725Z,42.68
2022-10-21T18:23:57.688Z,42.93
2022-10-21T18:28:51.874Z,43.30
2022-10-21T18:33:45.714Z,45.09
2022-10-21T18:38:38.998Z,46.27
2022-10-21T18:43:33.570Z,47.80
2022-10-21T18:48:26.789Z,49.07
2022-10-21T18:53:20.106Z,50.03
2022-10-21T18:58:13.393Z,51.35
2022-10-21T19:03:07.927Z,52.31
2022-10-21T19:08:01.062Z,53.19
2022-10-21T19:12:55.096Z,54.07
2022-10-21T19:17:48.982Z,54.80
2022-10-21T19:22:43.531Z,55.67
2022-10-21T19:27:36.878Z,56.10
2022-10-21T19:32:30.136Z,56.80
2022-10-21T19:37:23.247Z,57.16
2022-10-21T19:42:17.737Z,57.24
2022-10-21T19:47:14.094Z,57.26
2022-10-21T19:52:07.428Z,57.25
2022-10-21T19:57:00.558Z,57.26
2022-10-21T20:01:56.452Z,57.21
2022-10-21T20:06:49.645Z,56.76
2022-10-21T20:11:43.865Z,56.66
2022-10-21T20:16:44.009Z,56.13
2022-10-21T20:21:42.301Z,55.35
2022-10-21T20:26:35.724Z,54.32
2022-10-21T20:31:31.512Z,53.47
2022-10-21T20:36:30.063Z,53.46
2022-10-21T20:41:26.928Z,53.53
2022-10-21T20:46:21.903Z,53.91
2022-10-21T20:51:17.920Z,53.92
2022-10-21T20:56:11.041Z,53.58
2022-10-21T21:01:10.160Z,53.93
2022-10-21T21:06:03.544Z,53.89
2022-10-21T21:11:03.127Z,54.13
2022-10-21T21:16:05.341Z,54.33
2022-10-21T21:21:04.683Z,54.61
2022-10-21T21:26:03.001Z,54.63
2022-10-21T21:30:56.287Z,54.72
2022-10-21T21:35:49.418Z,54.91
2022-10-21T21:40:45.504Z,55.15
2022-10-21T21:45:38.733Z,55.22
2022-10-21T21:50:31.924Z,55.50
2022-10-21T21:55:25.075Z,55.75
2022-10-21T22:00:19.635Z,56.26
2022-10-21T22:05:12.757Z,56.83
2022-10-21T22:10:07.157Z,57.26
2022-10-21T22:15:00.184Z,58.20
2022-10-21T22:19:55.083Z,59.35
2022-10-21T22:24:48.279Z,60.09
2022-10-21T22:29:41.522Z,60.68
2022-10-21T22:34:34.657Z,61.59
2022-10-21T22:39:29.308Z,62.44
2022-10-21T22:44:22.945Z,63.10
2022-10-21T22:49:16.075Z,63.61
2022-10-21T22:54:19.175Z,64.19
2022-10-21T22:59:18.815Z,65.03
2022-10-21T23:04:11.920Z,65.45
2022-10-21T23:09:06.169Z,65.82
2022-10-21T23:14:08.319Z,66.38
2022-10-21T23:19:03.516Z,66.58
2022-10-21T23:23:56.757Z,67.49
2022-10-21T23:28:49.892Z,67.66
2022-10-21T23:33:42.952Z,68.63
2022-10-21T23:38:37.606Z,69.11
2022-10-21T23:43:30.734Z,69.37
2022-10-21T23:48:23.976Z,69.39
2022-10-21T23:53:17.154Z,69.68
2022-10-21T23:58:11.684Z,69.47
